createdAt,value
2023-03-04T00:00:33.498Z,2.17
2023-03-04T00:01:33.490Z,2.15
2023-03-04T00:02:33.486Z,2.13
2023-03-04T00:03:33.467Z,2.10
2023-03-04T00:04:33.446Z,2.15
2023-03-04T00:05:54.473Z,2.15
2023-03-04T00:06:33.419Z,2.18
2023-03-04T00:07:33.404Z,2.14
2023-03-04T00:08:33.399Z,2.18
2023-03-04T00:09:33.385Z,2.26
2023-03-04T00:10:33.368Z,2.32
2023-03-04T00:11:54.361Z,2.32
2023-03-04T00:12:33.337Z,2.36
2023-03-04T00:13:33.332Z,2.43
2023-03-04T00:14:33.313Z,2.43
2023-03-04T00:15:33.302Z,2.39
2023-03-04T00:16:33.303Z,2.56
2023-03-04T00:17:54.294Z,2.46
2023-03-04T00:18:33.269Z,2.51
2023-03-04T00:19:33.253Z,2.44
2023-03-04T00:20:33.239Z,2.50
2023-03-04T00:21:33.225Z,2.54
2023-03-04T00:22:33.206Z,2.56
2023-03-04T00:23:54.209Z,2.60
2023-03-04T00:24:33.238Z,2.67
2023-03-04T00:25:33.171Z,2.69
2023-03-04T00:26:33.170Z,2.64
2023-03-04T00:27:33.142Z,2.67
2023-03-04T00:28:33.131Z,2.69
2023-03-04T00:29:54.122Z,2.72
2023-03-04T00:30:33.099Z,2.72
2023-03-04T00:31:33.109Z,2.72
2023-03-04T00:32:33.128Z,2.69
2023-03-04T00:33:33.065Z,2.82
2023-03-04T00:34:33.072Z,2.72
2023-03-04T00:35:54.055Z,2.68
2023-03-04T00:36:33.054Z,2.86
2023-03-04T00:37:33.010Z,2.87
2023-03-04T00:38:32.999Z,2.92
2023-03-04T00:39:32.979Z,2.85
2023-03-04T00:40:32.985Z,2.95
2023-03-04T00:41:53.960Z,2.90
2023-03-04T00:42:32.936Z,2.97
2023-03-04T00:43:32.930Z,2.97
2023-03-04T00:44:32.909Z,3.00
2023-03-04T00:45:32.900Z,2.98
2023-03-04T00:46:32.894Z,2.89
2023-03-04T00:47:53.876Z,2.90
2023-03-04T00:48:32.854Z,2.98
2023-03-04T00:49:32.855Z,3.01
2023-03-04T00:50:32.862Z,3.01
2023-03-04T00:51:32.830Z,3.04
2023-03-04T00:52:32.813Z,3.00
2023-03-04T00:53:53.797Z,3.05
2023-03-04T00:54:32.777Z,3.08
2023-03-04T00:55:32.765Z,3.00
2023-03-04T00:56:32.748Z,3.08
2023-03-04T00:57:32.744Z,3.01
2023-03-04T00:58:32.733Z,3.01
2023-03-04T00:59:53.723Z,3.14
2023-03-04T01:00:32.704Z,3.04
2023-03-04T01:01:32.717Z,3.05
2023-03-04T01:02:32.725Z,3.08
2023-03-04T01:03:32.667Z,3.01
2023-03-04T01:04:32.655Z,3.08
2023-03-04T01:05:53.639Z,3.08
2023-03-04T01:06:32.622Z,3.11
2023-03-04T01:07:33.936Z,3.08
2023-03-04T01:08:32.595Z,3.10
2023-03-04T01:09:32.584Z,3.11
2023-03-04T01:10:32.558Z,3.21
2023-03-04T01:11:53.554Z,3.23
2023-03-04T01:12:32.532Z,3.16
2023-03-04T01:13:32.526Z,3.21
2023-03-04T01:14:32.504Z,3.21
2023-03-04T01:15:32.515Z,3.22
2023-03-04T01:16:32.515Z,3.14
2023-03-04T01:17:53.561Z,3.23
2023-03-04T01:18:32.450Z,3.21
2023-03-04T01:19:32.449Z,3.28
2023-03-04T01:20:32.428Z,3.25
2023-03-04T01:21:32.418Z,3.16
2023-03-04T01:22:32.402Z,3.21
2023-03-04T01:23:53.402Z,3.28
2023-03-04T01:24:32.369Z,3.23
2023-03-04T01:25:32.366Z,3.29
2023-03-04T01:26:32.350Z,3.28
2023-03-04T01:27:32.334Z,3.13
2023-03-04T01:28:32.319Z,3.28
2023-03-04T01:29:53.311Z,3.26
2023-03-04T01:30:32.331Z,3.19
2023-03-04T01:31:32.280Z,3.23
2023-03-04T01:32:32.324Z,3.26
2023-03-04T01:33:32.249Z,3.31
2023-03-04T01:34:32.260Z,3.14
2023-03-04T01:35:53.266Z,3.29
2023-03-04T01:36:32.263Z,3.31
2023-03-04T01:37:32.199Z,3.31
2023-03-04T01:38:32.185Z,3.26
2023-03-04T01:39:32.174Z,3.26
2023-03-04T01:40:32.155Z,3.23
2023-03-04T01:41:53.154Z,3.36
2023-03-04T01:42:32.143Z,3.32
2023-03-04T01:43:32.120Z,3.26
2023-03-04T01:44:32.131Z,3.28
2023-03-04T01:45:32.093Z,3.29
2023-03-04T01:46:32.169Z,3.29
2023-03-04T01:47:53.086Z,3.34
2023-03-04T01:48:32.052Z,3.28
2023-03-04T01:49:32.037Z,3.31
2023-03-04T01:50:32.047Z,3.40
2023-03-04T01:51:32.015Z,3.34
2023-03-04T01:52:32.000Z,3.41
2023-03-04T01:53:53.014Z,3.50
2023-03-04T01:54:31.981Z,3.55
2023-03-04T01:55:31.972Z,3.47
2023-03-04T01:56:31.950Z,3.51
2023-03-04T01:57:31.938Z,3.50
2023-03-04T01:58:31.921Z,3.51
2023-03-04T01:59:52.913Z,3.59
2023-03-04T02:00:31.965Z,3.50
2023-03-04T02:01:31.939Z,3.50
2023-03-04T02:02:31.870Z,3.47
2023-03-04T02:03:31.861Z,3.58
2023-03-04T02:04:31.877Z,3.62
2023-03-04T02:05:52.835Z,3.55
2023-03-04T02:06:31.813Z,3.56
2023-03-04T02:07:31.794Z,3.65
2023-03-04T02:08:31.794Z,3.63
2023-03-04T02:09:31.792Z,3.56
2023-03-04T02:10:31.794Z,3.68
2023-03-04T02:11:52.767Z,3.70
2023-03-04T02:12:31.735Z,3.63
2023-03-04T02:13:31.719Z,3.73
2023-03-04T02:14:31.708Z,3.73
2023-03-04T02:15:31.696Z,3.65
2023-03-04T02:16:31.682Z,3.60
2023-03-04T02:17:52.669Z,3.73
2023-03-04T02:18:31.652Z,3.69
2023-03-04T02:19:31.643Z,3.68
2023-03-04T02:20:31.625Z,3.63
2023-03-04T02:21:31.619Z,3.70
2023-03-04T02:22:31.604Z,3.66
2023-03-04T02:23:52.608Z,3.73
2023-03-04T02:24:31.574Z,3.78
2023-03-04T02:25:31.585Z,3.77
2023-03-04T02:26:31.547Z,3.80
2023-03-04T02:27:31.540Z,3.80
2023-03-04T02:28:31.527Z,3.77
2023-03-04T02:29:52.520Z,3.84
2023-03-04T02:30:31.494Z,3.78
2023-03-04T02:31:31.641Z,3.77
2023-03-04T02:32:31.573Z,3.78
2023-03-04T02:33:31.469Z,3.80
2023-03-04T02:34:31.455Z,3.74
2023-03-04T02:35:52.462Z,3.87
2023-03-04T02:36:31.414Z,3.69
2023-03-04T02:37:31.404Z,3.84
2023-03-04T02:38:31.436Z,3.86
2023-03-04T02:39:31.396Z,3.81
2023-03-04T02:40:31.376Z,3.83
2023-03-04T02:41:52.359Z,3.84
2023-03-04T02:42:31.354Z,3.84
2023-03-04T02:43:31.336Z,3.84
2023-03-04T02:44:31.316Z,3.96
2023-03-04T02:45:31.300Z,3.80
2023-03-04T02:46:31.332Z,3.78
2023-03-04T02:47:52.280Z,3.77
2023-03-04T02:48:31.257Z,3.91
2023-03-04T02:49:31.257Z,3.87
2023-03-04T02:50:31.239Z,3.92
2023-03-04T02:51:31.226Z,3.91
2023-03-04T02:52:31.214Z,3.88
2023-03-04T02:53:52.211Z,3.91
2023-03-04T02:54:31.186Z,3.99
2023-03-04T02:55:31.172Z,3.91
2023-03-04T02:56:31.157Z,3.99
2023-03-04T02:57:31.148Z,3.99
2023-03-04T02:58:31.129Z,3.95
2023-03-04T02:59:52.128Z,3.98
2023-03-04T03:00:31.108Z,3.95
2023-03-04T03:01:31.119Z,3.95
2023-03-04T03:02:31.100Z,3.95
2023-03-04T03:03:31.067Z,3.96
2023-03-04T03:04:31.050Z,3.86
2023-03-04T03:05:52.045Z,3.98
2023-03-04T03:06:31.024Z,3.95
2023-03-04T03:07:31.017Z,3.88
2023-03-04T03:08:31.000Z,3.94
2023-03-04T03:09:30.993Z,3.98
2023-03-04T03:10:30.974Z,3.98
2023-03-04T03:11:51.972Z,3.95
2023-03-04T03:12:30.948Z,3.95
2023-03-04T03:13:30.939Z,3.96
2023-03-04T03:14:30.924Z,3.98
2023-03-04T03:15:30.915Z,3.95
2023-03-04T03:16:31.016Z,3.99
2023-03-04T03:17:51.891Z,3.95
2023-03-04T03:18:30.867Z,3.98
2023-03-04T03:19:30.857Z,4.04
2023-03-04T03:20:30.842Z,4.04
2023-03-04T03:21:30.842Z,4.01
2023-03-04T03:22:30.821Z,4.01
2023-03-04T03:23:51.813Z,4.01
2023-03-04T03:24:30.804Z,3.98
2023-03-04T03:25:30.787Z,4.02
2023-03-04T03:26:30.769Z,4.02
2023-03-04T03:27:30.755Z,3.99
2023-03-04T03:28:30.736Z,4.01
2023-03-04T03:29:51.735Z,3.99
2023-03-04T03:30:30.714Z,3.99
2023-03-04T03:31:30.753Z,4.02
2023-03-04T03:32:30.739Z,4.02
2023-03-04T03:33:30.677Z,4.06
2023-03-04T03:34:30.682Z,4.04
2023-03-04T03:35:51.811Z,4.05
2023-03-04T03:36:30.730Z,4.05
2023-03-04T03:37:30.630Z,4.06
2023-03-04T03:38:30.612Z,4.04
2023-03-04T03:39:30.605Z,4.13
2023-03-04T03:40:30.592Z,4.13
2023-03-04T03:41:51.576Z,4.13
2023-03-04T03:42:30.562Z,4.13
2023-03-04T03:43:30.550Z,4.14
2023-03-04T03:44:30.531Z,4.16
2023-03-04T03:45:30.562Z,4.19
2023-03-04T03:46:30.507Z,4.14
2023-03-04T03:47:51.505Z,4.20
2023-03-04T03:48:30.488Z,4.14
2023-03-04T03:49:30.473Z,4.13
2023-03-04T03:50:30.456Z,4.19
2023-03-04T03:51:30.446Z,4.17
2023-03-04T03:52:30.436Z,4.16
2023-03-04T03:53:51.422Z,4.24
2023-03-04T03:54:30.403Z,4.16
2023-03-04T03:55:30.393Z,4.23
2023-03-04T03:56:30.386Z,4.16
2023-03-04T03:57:30.414Z,4.23
2023-03-04T03:58:30.355Z,4.23
2023-03-04T03:59:51.350Z,4.23
2023-03-04T04:00:30.327Z,4.31
2023-03-04T04:01:30.320Z,4.24
2023-03-04T04:02:30.407Z,4.30
2023-03-04T04:03:30.294Z,4.32
2023-03-04T04:04:30.277Z,4.38
2023-03-04T04:05:51.278Z,4.34
2023-03-04T04:06:30.252Z,4.28
2023-03-04T04:07:30.247Z,4.24
2023-03-04T04:08:30.231Z,4.30
2023-03-04T04:09:30.226Z,4.26
2023-03-04T04:10:30.205Z,4.26
2023-03-04T04:11:51.201Z,4.38
2023-03-04T04:12:30.181Z,4.32
2023-03-04T04:13:30.229Z,4.30
2023-03-04T04:14:30.171Z,4.30
2023-03-04T04:15:30.143Z,4.30
2023-03-04T04:16:30.145Z,4.32
2023-03-04T04:17:52.124Z,4.32
2023-03-04T04:18:30.113Z,4.28
2023-03-04T04:19:30.118Z,4.26
2023-03-04T04:20:30.090Z,4.32
2023-03-04T04:21:30.071Z,4.32
2023-03-04T04:22:30.056Z,4.31
2023-03-04T04:23:51.046Z,4.34
2023-03-04T04:24:30.031Z,4.31
2023-03-04T04:25:30.020Z,4.30
2023-03-04T04:26:30.022Z,4.34
2023-03-04T04:27:30.015Z,4.35
2023-03-04T04:28:29.980Z,4.37
2023-03-04T04:29:50.974Z,4.35
2023-03-04T04:30:30.019Z,4.40
2023-03-04T04:31:29.941Z,4.32
2023-03-04T04:32:29.956Z,4.35
2023-03-04T04:33:29.916Z,4.48
2023-03-04T04:34:29.903Z,4.49
2023-03-04T04:35:50.929Z,4.38
2023-03-04T04:36:29.877Z,4.30
2023-03-04T04:37:29.865Z,4.41
2023-03-04T04:38:29.851Z,4.44
2023-03-04T04:39:29.839Z,4.42
2023-03-04T04:40:29.844Z,4.48
2023-03-04T04:41:50.817Z,4.42
2023-03-04T04:42:29.798Z,4.45
2023-03-04T04:43:29.792Z,4.44
2023-03-04T04:44:29.774Z,4.50
2023-03-04T04:45:29.764Z,4.41
2023-03-04T04:46:29.750Z,4.50
2023-03-04T04:47:50.736Z,4.50
2023-03-04T04:48:29.734Z,4.50
2023-03-04T04:49:29.711Z,4.45
2023-03-04T04:50:32.522Z,4.48
2023-03-04T04:51:29.683Z,4.58
2023-03-04T04:52:29.675Z,4.49
2023-03-04T04:53:50.661Z,4.48
2023-03-04T04:54:29.657Z,4.50
2023-03-04T04:55:29.641Z,4.53
2023-03-04T04:56:29.625Z,4.56
2023-03-04T04:57:29.606Z,4.49
2023-03-04T04:58:29.606Z,4.52
2023-03-04T04:59:50.590Z,4.52
2023-03-04T05:00:29.574Z,4.55
2023-03-04T05:01:29.625Z,4.56
2023-03-04T05:02:29.550Z,4.59
2023-03-04T05:03:29.621Z,4.60
2023-03-04T05:04:29.525Z,4.63
2023-03-04T05:05:50.518Z,4.58
2023-03-04T05:06:29.506Z,4.53
2023-03-04T05:07:29.505Z,4.59
2023-03-04T05:08:29.482Z,4.68
2023-03-04T05:09:29.460Z,4.67
2023-03-04T05:10:29.455Z,4.63
2023-03-04T05:11:50.451Z,4.59
2023-03-04T05:12:29.433Z,4.56
2023-03-04T05:13:29.415Z,4.63
2023-03-04T05:14:29.424Z,4.55
2023-03-04T05:15:29.422Z,4.60
2023-03-04T05:16:29.391Z,4.56
2023-03-04T05:17:50.371Z,4.56
2023-03-04T05:18:29.355Z,4.63
2023-03-04T05:19:29.339Z,4.59
2023-03-04T05:20:29.336Z,4.66
2023-03-04T05:21:29.323Z,4.63
2023-03-04T05:22:29.313Z,4.60
2023-03-04T05:23:50.298Z,4.60
2023-03-04T05:24:29.280Z,4.62
2023-03-04T05:25:29.271Z,4.67
2023-03-04T05:26:29.261Z,4.66
2023-03-04T05:27:29.249Z,4.67
2023-03-04T05:28:29.237Z,4.68
2023-03-04T05:29:50.226Z,4.74
2023-03-04T05:30:29.205Z,4.70
2023-03-04T05:31:29.285Z,4.71
2023-03-04T05:32:29.211Z,4.70
2023-03-04T05:33:29.168Z,4.73
2023-03-04T05:34:29.171Z,4.74
2023-03-04T05:35:50.212Z,4.67
2023-03-04T05:36:29.136Z,4.68
2023-03-04T05:37:29.116Z,4.70
2023-03-04T05:38:29.117Z,4.73
2023-03-04T05:39:29.094Z,4.73
2023-03-04T05:40:29.080Z,4.70
2023-03-04T05:41:50.075Z,4.71
2023-03-04T05:42:29.070Z,4.71
2023-03-04T05:43:29.060Z,4.68
2023-03-04T05:44:29.033Z,4.71
2023-03-04T05:45:29.019Z,4.71
2023-03-04T05:46:29.863Z,4.74
2023-03-04T05:47:49.999Z,4.74
2023-03-04T05:48:28.992Z,4.67
2023-03-04T05:49:29.013Z,4.73
2023-03-04T05:50:28.963Z,4.77
2023-03-04T05:51:28.945Z,4.75
2023-03-04T05:52:28.933Z,4.73
2023-03-04T05:53:49.973Z,4.74
2023-03-04T05:54:28.918Z,4.74
2023-03-04T05:55:28.903Z,4.70
2023-03-04T05:56:28.885Z,4.77
2023-03-04T05:57:30.843Z,4.74
2023-03-04T05:58:28.866Z,4.70
2023-03-04T05:59:49.854Z,4.87
2023-03-04T06:00:28.845Z,4.78
2023-03-04T06:01:28.819Z,4.74
2023-03-04T06:02:28.815Z,4.73
2023-03-04T06:03:28.826Z,4.75
2023-03-04T06:04:28.793Z,4.75
2023-03-04T06:05:49.794Z,4.77
2023-03-04T06:06:28.766Z,4.75
2023-03-04T06:07:28.746Z,4.82
2023-03-04T06:08:28.743Z,4.80
2023-03-04T06:09:28.721Z,4.87
2023-03-04T06:10:28.712Z,4.87
2023-03-04T06:11:49.701Z,4.75
2023-03-04T06:12:28.694Z,4.87
2023-03-04T06:13:28.675Z,4.87
2023-03-04T06:14:28.700Z,4.82
2023-03-04T06:15:28.655Z,4.82
2023-03-04T06:16:28.642Z,4.82
2023-03-04T06:17:49.633Z,4.78
2023-03-04T06:18:28.614Z,4.92
2023-03-04T06:19:28.595Z,4.89
2023-03-04T06:20:28.586Z,4.92
2023-03-04T06:21:28.573Z,4.87
2023-03-04T06:22:28.562Z,4.93
2023-03-04T06:23:49.553Z,4.89
2023-03-04T06:24:28.557Z,4.89
2023-03-04T06:25:28.537Z,4.80
2023-03-04T06:26:28.516Z,4.77
2023-03-04T06:27:28.499Z,4.89
2023-03-04T06:28:28.487Z,4.94
2023-03-04T06:29:49.479Z,4.97
2023-03-04T06:30:28.465Z,4.94
2023-03-04T06:31:28.489Z,4.93
2023-03-04T06:32:28.473Z,4.90
2023-03-04T06:33:28.424Z,4.86
2023-03-04T06:34:28.412Z,4.94
2023-03-04T06:35:49.517Z,4.93
2023-03-04T06:36:28.388Z,4.89
2023-03-04T06:37:28.380Z,4.94
2023-03-04T06:38:28.362Z,4.93
2023-03-04T06:39:28.358Z,4.93
2023-03-04T06:40:28.335Z,4.89
2023-03-04T06:41:49.341Z,4.96
2023-03-04T06:42:28.347Z,4.96
2023-03-04T06:43:28.302Z,5.02
2023-03-04T06:44:28.300Z,4.97
2023-03-04T06:45:28.277Z,4.96
2023-03-04T06:46:30.376Z,4.99
2023-03-04T06:47:49.309Z,4.96
2023-03-04T06:48:28.240Z,5.04
2023-03-04T06:49:28.232Z,4.92
2023-03-04T06:50:28.219Z,4.94
2023-03-04T06:51:28.234Z,4.97
2023-03-04T06:52:28.195Z,4.94
2023-03-04T06:53:49.187Z,4.96
2023-03-04T06:54:28.173Z,5.04
2023-03-04T06:55:28.154Z,5.05
2023-03-04T06:56:28.231Z,5.05
2023-03-04T06:57:28.135Z,5.02
2023-03-04T06:58:28.116Z,5.08
2023-03-04T06:59:49.114Z,5.11
2023-03-04T07:00:28.123Z,5.07
2023-03-04T07:01:28.115Z,5.15
2023-03-04T07:02:28.212Z,5.08
2023-03-04T07:03:28.072Z,5.05
2023-03-04T07:04:28.106Z,5.15
2023-03-04T07:05:49.044Z,5.05
2023-03-04T07:06:28.056Z,5.08
2023-03-04T07:07:28.016Z,5.12
2023-03-04T07:08:28.135Z,5.14
2023-03-04T07:09:27.989Z,5.11
2023-03-04T07:10:28.086Z,5.08
2023-03-04T07:11:49.032Z,5.05
2023-03-04T07:12:27.948Z,5.11
2023-03-04T07:13:27.946Z,5.04
2023-03-04T07:14:28.006Z,5.00
2023-03-04T07:15:27.917Z,4.97
2023-03-04T07:16:27.943Z,4.93
2023-03-04T07:17:48.896Z,4.97
2023-03-04T07:18:27.874Z,4.99
2023-03-04T07:19:27.863Z,5.00
2023-03-04T07:20:30.139Z,5.04
2023-03-04T07:21:27.842Z,4.97
2023-03-04T07:22:27.849Z,5.04
2023-03-04T07:23:48.819Z,5.07
2023-03-04T07:24:27.812Z,5.07
2023-03-04T07:25:27.799Z,5.12
2023-03-04T07:26:27.777Z,5.10
2023-03-04T07:27:27.777Z,5.08
2023-03-04T07:28:27.753Z,5.11
2023-03-04T07:29:48.748Z,5.11
2023-03-04T07:30:27.729Z,5.14
2023-03-04T07:31:27.803Z,5.18
2023-03-04T07:32:27.754Z,5.20
2023-03-04T07:33:27.704Z,5.21
2023-03-04T07:34:27.682Z,5.28
2023-03-04T07:35:48.918Z,5.28
2023-03-04T07:36:27.676Z,5.30
2023-03-04T07:37:27.649Z,5.35
2023-03-04T07:38:27.645Z,5.29
2023-03-04T07:39:27.629Z,5.39
2023-03-04T07:40:27.617Z,5.43
2023-03-04T07:41:48.620Z,5.41
2023-03-04T07:42:27.591Z,5.43
2023-03-04T07:43:27.578Z,5.35
2023-03-04T07:44:27.563Z,5.43
2023-03-04T07:45:27.558Z,5.36
2023-03-04T07:46:27.542Z,5.43
2023-03-04T07:47:48.530Z,5.44
2023-03-04T07:48:27.521Z,5.46
2023-03-04T07:49:27.502Z,5.46
2023-03-04T07:50:27.504Z,5.41
2023-03-04T07:51:27.492Z,5.43
2023-03-04T07:52:27.484Z,5.41
2023-03-04T07:53:48.463Z,5.51
2023-03-04T07:54:27.451Z,5.54
2023-03-04T07:55:27.439Z,5.48
2023-03-04T07:56:27.425Z,5.53
2023-03-04T07:57:27.411Z,5.61
2023-03-04T07:58:27.398Z,5.57
2023-03-04T07:59:48.388Z,5.57
2023-03-04T08:00:27.374Z,5.56
2023-03-04T08:01:27.365Z,5.43
2023-03-04T08:02:27.416Z,5.39
2023-03-04T08:03:27.343Z,5.48
2023-03-04T08:04:27.499Z,5.44
2023-03-04T08:05:48.326Z,5.41
2023-03-04T08:06:27.310Z,5.44
2023-03-04T08:07:27.289Z,5.53
2023-03-04T08:08:27.570Z,5.50
2023-03-04T08:09:27.267Z,5.56
2023-03-04T08:10:27.258Z,5.54
2023-03-04T08:11:48.246Z,5.53
2023-03-04T08:12:27.235Z,5.43
2023-03-04T08:13:27.224Z,5.53
2023-03-04T08:14:27.220Z,5.41
2023-03-04T08:15:27.192Z,5.57
2023-03-04T08:16:27.200Z,5.56
2023-03-04T08:17:48.177Z,5.54
2023-03-04T08:18:27.166Z,5.56
2023-03-04T08:19:27.145Z,5.53
2023-03-04T08:20:27.210Z,5.46
2023-03-04T08:21:27.156Z,5.51
2023-03-04T08:22:27.118Z,5.46
2023-03-04T08:23:48.119Z,5.46
2023-03-04T08:24:27.089Z,5.47
2023-03-04T08:25:27.076Z,5.48
2023-03-04T08:26:27.138Z,5.41
2023-03-04T08:27:27.051Z,5.57
2023-03-04T08:28:27.040Z,5.54
2023-03-04T08:29:48.030Z,5.53
2023-03-04T08:30:27.048Z,5.54
2023-03-04T08:31:27.124Z,5.66
2023-03-04T08:32:27.169Z,5.69
2023-03-04T08:33:26.997Z,5.68
2023-03-04T08:34:26.968Z,5.66
2023-03-04T08:35:48.156Z,5.69
2023-03-04T08:36:26.962Z,5.65
2023-03-04T08:37:26.938Z,5.69
2023-03-04T08:38:26.926Z,5.72
2023-03-04T08:39:26.904Z,5.69
2023-03-04T08:40:26.948Z,5.79
2023-03-04T08:41:47.890Z,5.75
2023-03-04T08:42:26.882Z,5.75
2023-03-04T08:43:26.857Z,5.83
2023-03-04T08:44:26.926Z,5.82
2023-03-04T08:45:26.864Z,5.84
2023-03-04T08:46:26.902Z,5.75
2023-03-04T08:47:47.818Z,5.87
2023-03-04T08:48:26.812Z,5.82
2023-03-04T08:49:26.800Z,5.84
2023-03-04T08:50:26.788Z,5.87
2023-03-04T08:51:26.765Z,5.89
2023-03-04T08:52:26.858Z,5.87
2023-03-04T08:53:47.746Z,5.99
2023-03-04T08:54:26.734Z,6.01
2023-03-04T08:55:26.748Z,6.02
2023-03-04T08:56:26.814Z,6.07
2023-03-04T08:57:26.699Z,6.07
2023-03-04T08:58:26.686Z,6.02
2023-03-04T08:59:47.791Z,6.14
2023-03-04T09:00:26.661Z,6.16
2023-03-04T09:01:26.759Z,6.14
2023-03-04T09:02:26.660Z,6.09
2023-03-04T09:03:26.901Z,6.27
2023-03-04T09:04:26.614Z,6.20
2023-03-04T09:05:47.621Z,6.12
2023-03-04T09:06:26.652Z,6.22
2023-03-04T09:07:26.587Z,6.16
2023-03-04T09:08:26.634Z,6.28
2023-03-04T09:09:26.555Z,6.30
2023-03-04T09:10:26.554Z,6.41
2023-03-04T09:11:47.538Z,6.44
2023-03-04T09:12:26.527Z,6.41
2023-03-04T09:13:26.605Z,6.39
2023-03-04T09:14:26.505Z,6.45
2023-03-04T09:15:26.494Z,6.44
2023-03-04T09:16:26.519Z,6.45
2023-03-04T09:17:47.477Z,6.54
2023-03-04T09:18:26.469Z,6.48
2023-03-04T09:19:26.469Z,6.44
2023-03-04T09:20:26.456Z,6.60
2023-03-04T09:21:26.419Z,6.62
2023-03-04T09:22:26.415Z,6.56
2023-03-04T09:23:47.404Z,6.63
2023-03-04T09:24:26.392Z,6.56
2023-03-04T09:25:26.377Z,6.54
2023-03-04T09:26:26.368Z,6.51
2023-03-04T09:27:26.349Z,6.54
2023-03-04T09:28:26.344Z,6.46
2023-03-04T09:29:47.332Z,6.64
2023-03-04T09:30:28.026Z,6.64
2023-03-04T09:31:26.393Z,6.67
2023-03-04T09:32:26.352Z,6.72
2023-03-04T09:33:26.295Z,6.69
2023-03-04T09:34:26.275Z,6.66
2023-03-04T09:35:47.306Z,6.69
2023-03-04T09:36:26.299Z,6.70
2023-03-04T09:37:26.238Z,6.64
2023-03-04T09:38:26.229Z,6.70
2023-03-04T09:39:26.213Z,6.70
2023-03-04T09:40:26.206Z,6.54
2023-03-04T09:41:47.215Z,6.62
2023-03-04T09:42:26.197Z,6.59
2023-03-04T09:43:26.177Z,6.45
2023-03-04T09:44:26.163Z,6.59
2023-03-04T09:45:26.164Z,6.48
2023-03-04T09:46:26.159Z,6.63
2023-03-04T09:47:47.129Z,6.67
2023-03-04T09:48:26.154Z,6.69
2023-03-04T09:49:26.103Z,6.67
2023-03-04T09:50:26.096Z,6.74
2023-03-04T09:51:26.081Z,6.64
2023-03-04T09:52:26.073Z,6.82
2023-03-04T09:53:47.060Z,6.77
2023-03-04T09:54:26.054Z,6.82
2023-03-04T09:55:26.388Z,6.84
2023-03-04T09:56:26.024Z,6.79
2023-03-04T09:57:26.011Z,6.79
2023-03-04T09:58:26.008Z,6.87
2023-03-04T09:59:46.997Z,6.82
2023-03-04T10:00:26.038Z,6.78
2023-03-04T10:01:25.969Z,6.81
2023-03-04T10:02:25.960Z,6.82
2023-03-04T10:03:25.979Z,6.82
2023-03-04T10:04:25.952Z,6.87
2023-03-04T10:05:46.923Z,6.85
2023-03-04T10:06:25.910Z,6.82
2023-03-04T10:07:25.904Z,6.87
2023-03-04T10:08:25.895Z,6.93
2023-03-04T10:09:25.896Z,6.89
2023-03-04T10:10:25.947Z,6.92
2023-03-04T10:11:46.881Z,6.87
2023-03-04T10:12:25.884Z,6.84
2023-03-04T10:13:25.831Z,6.87
2023-03-04T10:14:25.827Z,6.92
2023-03-04T10:15:25.810Z,7.02
2023-03-04T10:16:25.816Z,7.05
2023-03-04T10:17:46.793Z,6.97
2023-03-04T10:18:25.779Z,7.02
2023-03-04T10:19:25.765Z,7.00
2023-03-04T10:20:25.760Z,6.96
2023-03-04T10:21:25.741Z,6.95
2023-03-04T10:22:25.737Z,6.89
2023-03-04T10:23:46.724Z,6.85
2023-03-04T10:24:25.714Z,6.99
2023-03-04T10:25:25.723Z,7.11
2023-03-04T10:26:25.690Z,7.13
2023-03-04T10:27:25.707Z,7.15
2023-03-04T10:28:25.665Z,7.10
2023-03-04T10:29:48.969Z,7.10
2023-03-04T10:30:25.642Z,7.02
2023-03-04T10:31:25.662Z,7.02
2023-03-04T10:32:25.711Z,7.00
2023-03-04T10:33:25.605Z,6.96
2023-03-04T10:34:25.598Z,6.89
2023-03-04T10:35:46.610Z,6.82
2023-03-04T10:36:25.571Z,6.88
2023-03-04T10:37:25.555Z,6.78
2023-03-04T10:38:25.550Z,6.81
2023-03-04T10:39:25.555Z,6.89
2023-03-04T10:40:25.528Z,6.77
2023-03-04T10:41:46.636Z,6.85
2023-03-04T10:42:25.820Z,6.82
2023-03-04T10:43:25.489Z,6.82
2023-03-04T10:44:25.473Z,6.88
2023-03-04T10:45:25.487Z,6.88
2023-03-04T10:46:25.566Z,6.78
2023-03-04T10:47:46.449Z,6.81
2023-03-04T10:48:25.433Z,6.72
2023-03-04T10:49:25.498Z,6.79
2023-03-04T10:50:25.426Z,6.81
2023-03-04T10:51:25.405Z,6.79
2023-03-04T10:52:25.477Z,6.95
2023-03-04T10:53:46.376Z,7.03
2023-03-04T10:54:25.364Z,6.99
2023-03-04T10:55:25.346Z,6.99
2023-03-04T10:56:25.344Z,7.10
2023-03-04T10:57:25.381Z,7.07
2023-03-04T10:58:25.323Z,6.99
2023-03-04T10:59:46.382Z,7.11
2023-03-04T11:00:25.293Z,7.07
2023-03-04T11:01:25.466Z,7.11
2023-03-04T11:02:25.275Z,7.23
2023-03-04T11:03:27.956Z,7.18
2023-03-04T11:04:25.252Z,7.20
2023-03-04T11:05:46.268Z,7.32
2023-03-04T11:06:25.226Z,7.33
2023-03-04T11:07:25.222Z,7.38
2023-03-04T11:08:25.206Z,7.28
2023-03-04T11:09:25.197Z,7.31
2023-03-04T11:10:25.206Z,7.32
2023-03-04T11:11:46.207Z,7.18
2023-03-04T11:12:25.886Z,7.10
2023-03-04T11:13:25.155Z,7.15
2023-03-04T11:14:25.147Z,7.00
2023-03-04T11:15:25.125Z,6.99
2023-03-04T11:16:25.205Z,7.06
2023-03-04T11:17:46.112Z,7.10
2023-03-04T11:18:25.100Z,7.18
2023-03-04T11:19:25.078Z,7.28
2023-03-04T11:20:25.069Z,7.35
2023-03-04T11:21:25.060Z,7.35
2023-03-04T11:22:25.055Z,7.38
2023-03-04T11:23:46.058Z,7.39
2023-03-04T11:24:28.933Z,7.36
2023-03-04T11:25:25.016Z,7.29
2023-03-04T11:26:25.003Z,7.36
2023-03-04T11:27:25.001Z,7.35
2023-03-04T11:28:25.000Z,7.18
2023-03-04T11:29:45.983Z,7.18
2023-03-04T11:30:24.962Z,7.02
2023-03-04T11:31:24.971Z,7.10
2023-03-04T11:32:24.963Z,7.20
2023-03-04T11:33:24.922Z,7.20
2023-03-04T11:34:24.912Z,7.31
2023-03-04T11:35:45.968Z,7.35
2023-03-04T11:36:24.907Z,7.51
2023-03-04T11:37:24.893Z,7.47
2023-03-04T11:38:24.881Z,7.42
2023-03-04T11:39:24.872Z,7.40
2023-03-04T11:40:24.870Z,7.43
2023-03-04T11:41:45.856Z,7.32
2023-03-04T11:42:24.853Z,7.31
2023-03-04T11:43:24.835Z,7.15
2023-03-04T11:44:24.828Z,7.17
2023-03-04T11:45:29.504Z,7.20
2023-03-04T11:46:25.223Z,7.31
2023-03-04T11:47:45.805Z,7.17
2023-03-04T11:48:24.793Z,7.02
2023-03-04T11:49:24.774Z,7.11
2023-03-04T11:50:24.778Z,7.10
2023-03-04T11:51:24.764Z,7.11
2023-03-04T11:52:24.752Z,7.14
2023-03-04T11:53:45.778Z,7.10
2023-03-04T11:54:24.750Z,7.13
2023-03-04T11:55:24.716Z,6.97
2023-03-04T11:56:24.709Z,7.00
2023-03-04T11:57:24.686Z,7.07
2023-03-04T11:58:24.682Z,7.00
2023-03-04T11:59:45.670Z,7.10
2023-03-04T12:00:24.663Z,7.14
2023-03-04T12:01:24.647Z,7.15
2023-03-04T12:02:24.636Z,7.10
2023-03-04T12:03:24.688Z,7.15
2023-03-04T12:04:24.760Z,7.20
2023-03-04T12:05:45.601Z,7.15
2023-03-04T12:06:24.740Z,7.15
2023-03-04T12:07:24.603Z,7.18
2023-03-04T12:08:24.572Z,7.25
2023-03-04T12:09:24.563Z,7.20
2023-03-04T12:10:24.581Z,7.23
2023-03-04T12:11:45.539Z,7.05
2023-03-04T12:12:24.532Z,7.07
2023-03-04T12:13:24.516Z,7.20
2023-03-04T12:14:24.506Z,7.18
2023-03-04T12:15:24.491Z,7.17
2023-03-04T12:16:24.481Z,7.20
2023-03-04T12:17:45.485Z,7.17
2023-03-04T12:18:24.641Z,7.29
2023-03-04T12:19:24.450Z,7.17
2023-03-04T12:20:24.448Z,7.21
2023-03-04T12:21:24.433Z,7.18
2023-03-04T12:22:24.454Z,7.15
2023-03-04T12:23:45.416Z,7.20
2023-03-04T12:24:24.397Z,7.15
2023-03-04T12:25:24.383Z,7.10
2023-03-04T12:26:24.375Z,7.03
2023-03-04T12:27:24.380Z,7.03
2023-03-04T12:28:24.353Z,7.03
2023-03-04T12:29:45.348Z,7.00
2023-03-04T12:30:24.329Z,7.05
2023-03-04T12:31:24.344Z,7.00
2023-03-04T12:32:24.326Z,7.07
2023-03-04T12:33:24.334Z,7.03
2023-03-04T12:34:24.284Z,7.13
2023-03-04T12:35:45.313Z,7.14
2023-03-04T12:36:24.267Z,7.14
2023-03-04T12:37:24.247Z,7.11
2023-03-04T12:38:24.239Z,7.11
2023-03-04T12:39:24.232Z,7.10
2023-03-04T12:40:24.231Z,7.20
2023-03-04T12:41:45.209Z,7.20
2023-03-04T12:42:24.197Z,7.17
2023-03-04T12:43:24.182Z,7.35
2023-03-04T12:44:24.174Z,7.32
2023-03-04T12:45:24.170Z,7.32
2023-03-04T12:46:24.193Z,7.43
2023-03-04T12:47:45.151Z,7.48
2023-03-04T12:48:24.165Z,7.54
2023-03-04T12:49:24.126Z,7.39
2023-03-04T12:50:24.108Z,7.28
2023-03-04T12:51:24.153Z,7.15
2023-03-04T12:52:24.086Z,7.25
2023-03-04T12:53:45.077Z,7.20
2023-03-04T12:54:24.068Z,7.21
2023-03-04T12:55:24.057Z,7.15
2023-03-04T12:56:24.049Z,7.20
2023-03-04T12:57:24.030Z,7.20
2023-03-04T12:58:24.021Z,7.20
2023-03-04T12:59:45.012Z,7.33
2023-03-04T13:00:24.005Z,7.32
2023-03-04T13:01:23.990Z,7.35
2023-03-04T13:02:24.265Z,7.31
2023-03-04T13:03:24.259Z,7.23
2023-03-04T13:04:23.971Z,7.31
2023-03-04T13:05:45.049Z,7.21
2023-03-04T13:06:23.944Z,7.18
2023-03-04T13:07:24.092Z,7.15
2023-03-04T13:08:23.919Z,7.20
2023-03-04T13:09:23.903Z,7.13
2023-03-04T13:10:24.081Z,7.15
2023-03-04T13:11:44.929Z,7.07
2023-03-04T13:12:23.869Z,7.13
2023-03-04T13:13:23.857Z,7.13
2023-03-04T13:14:23.857Z,6.99
2023-03-04T13:15:23.835Z,6.92
2023-03-04T13:16:23.864Z,6.97
2023-03-04T13:17:44.840Z,6.85
2023-03-04T13:18:23.803Z,6.87